createdAt,value
2022-10-31T00:00:49.755Z,46.95
2022-10-31T00:03:18.372Z,45.75
2022-10-31T00:05:47.782Z,54.13
2022-10-31T00:08:15.740Z,44.42
2022-10-31T00:10:43.975Z,49.28
2022-10-31T00:13:12.763Z,47.80
2022-10-31T00:15:41.480Z,45.22
2022-10-31T00:18:10.329Z,43.28
2022-10-31T00:20:37.979Z,38.20
2022-10-31T00:23:06.515Z,43.72
2022-10-31T00:25:39.299Z,39.45
2022-10-31T00:28:08.339Z,42.40
2022-10-31T00:30:35.647Z,43.28
2022-10-31T00:33:05.432Z,44.50
2022-10-31T00:35:32.867Z,34.75
2022-10-31T00:38:00.335Z,34.88
2022-10-31T00:40:27.356Z,38.35
2022-10-31T00:42:54.516Z,33.80
2022-10-31T00:45:21.606Z,36.88
2022-10-31T00:47:48.616Z,38.50
2022-10-31T00:50:15.890Z,32.67
2022-10-31T00:52:42.903Z,38.83
2022-10-31T00:55:09.962Z,32.42
2022-10-31T00:57:37.156Z,34.53
2022-10-31T01:00:04.910Z,35.17
2022-10-31T01:02:32.072Z,40.75
2022-10-31T01:04:59.397Z,34.92
2022-10-31T01:07:26.446Z,39.13
2022-10-31T01:09:53.442Z,37.35
2022-10-31T01:12:20.653Z,40.10
2022-10-31T01:14:47.854Z,33.65
2022-10-31T01:17:15.601Z,36.60
2022-10-31T01:19:42.619Z,34.08
2022-10-31T01:22:09.835Z,37.53
2022-10-31T01:24:37.056Z,39.72
2022-10-31T01:27:04.774Z,27.85
2022-10-31T01:29:31.893Z,42.65
2022-10-31T01:31:58.977Z,31.27
2022-10-31T01:34:26.163Z,37.15
2022-10-31T01:36:53.213Z,26.55
2022-10-31T01:39:20.590Z,32.67
2022-10-31T01:41:53.444Z,32.33
2022-10-31T01:44:20.411Z,36.75
2022-10-31T01:46:55.012Z,34.45
2022-10-31T01:49:26.859Z,41.33
2022-10-31T01:52:02.706Z,39.90
2022-10-31T01:54:34.685Z,28.75
2022-10-31T01:57:03.937Z,32.95
2022-10-31T01:59:34.722Z,34.30
2022-10-31T02:02:02.125Z,37.13
2022-10-31T02:04:30.280Z,37.03
2022-10-31T02:07:04.709Z,39.47
2022-10-31T02:09:34.728Z,40.53
2022-10-31T02:12:02.370Z,39.78
2022-10-31T02:14:31.654Z,30.45
2022-10-31T02:16:59.227Z,39.22
2022-10-31T02:19:46.463Z,33.72
2022-10-31T02:22:23.982Z,32.60
2022-10-31T02:25:20.794Z,36.35
2022-10-31T02:28:10.939Z,40.22
2022-10-31T02:30:50.348Z,37.60
2022-10-31T02:33:30.893Z,38.83
2022-10-31T02:36:07.038Z,35.67
2022-10-31T02:38:41.541Z,42.58
2022-10-31T02:41:23.940Z,32.63
2022-10-31T02:44:09.805Z,38.85
2022-10-31T02:46:51.204Z,40.80
2022-10-31T02:49:35.310Z,42.33
2022-10-31T02:52:02.460Z,45.70
2022-10-31T02:54:30.435Z,44.95
2022-10-31T02:57:08.433Z,34.95
2022-10-31T02:59:38.266Z,35.88
2022-10-31T03:02:34.845Z,43.17
2022-10-31T03:05:08.122Z,49.33
2022-10-31T03:08:08.944Z,47.08
2022-10-31T03:10:53.459Z,43.65
2022-10-31T03:13:35.417Z,49.42
2022-10-31T03:16:08.190Z,44.70
2022-10-31T03:18:41.519Z,37.85
2022-10-31T03:21:17.843Z,44.35
2022-10-31T03:23:47.486Z,46.00
2022-10-31T03:26:16.598Z,40.47
2022-10-31T03:28:58.478Z,43.83
2022-10-31T03:31:30.716Z,36.15
2022-10-31T03:34:01.287Z,45.22
2022-10-31T03:36:32.267Z,35.20
2022-10-31T03:39:01.894Z,42.58
2022-10-31T03:41:32.557Z,37.25
2022-10-31T03:44:09.026Z,44.30
2022-10-31T03:46:36.286Z,39.22
2022-10-31T03:49:04.207Z,49.95
2022-10-31T03:51:50.259Z,50.92
2022-10-31T03:54:42.877Z,44.78
2022-10-31T03:57:22.930Z,42.30
2022-10-31T03:59:56.435Z,38.20
2022-10-31T04:02:30.109Z,48.05
2022-10-31T04:04:57.888Z,36.83
2022-10-31T04:07:29.025Z,36.60
2022-10-31T04:09:57.703Z,34.78
2022-10-31T04:12:26.599Z,34.63
2022-10-31T04:14:56.075Z,36.10
2022-10-31T04:17:24.929Z,35.63
2022-10-31T04:19:52.256Z,29.98
2022-10-31T04:22:19.322Z,33.42
2022-10-31T04:24:46.386Z,35.05
2022-10-31T04:27:13.477Z,30.63
2022-10-31T04:29:40.468Z,31.77
2022-10-31T04:32:07.605Z,30.48
2022-10-31T04:34:34.688Z,34.03
2022-10-31T04:37:01.730Z,31.58
2022-10-31T04:39:28.936Z,36.60
2022-10-31T04:41:55.951Z,33.00
2022-10-31T04:44:22.971Z,29.33
2022-10-31T04:46:50.221Z,29.95
2022-10-31T04:49:17.229Z,33.30
2022-10-31T04:51:44.248Z,35.88
2022-10-31T04:54:11.350Z,26.67
2022-10-31T04:56:38.376Z,37.30
2022-10-31T04:59:05.557Z,34.08
2022-10-31T05:01:32.737Z,28.45
2022-10-31T05:03:59.850Z,26.60
2022-10-31T05:06:26.969Z,28.58
2022-10-31T05:08:54.233Z,28.65
2022-10-31T05:11:21.255Z,34.20
2022-10-31T05:13:48.492Z,29.67
2022-10-31T05:16:15.637Z,32.95
2022-10-31T05:18:42.641Z,31.60
2022-10-31T05:21:09.931Z,28.08
2022-10-31T05:23:38.121Z,27.10
2022-10-31T05:26:05.953Z,31.73
2022-10-31T05:28:32.987Z,32.75
2022-10-31T05:31:00.050Z,33.22
2022-10-31T05:33:27.169Z,33.38
2022-10-31T05:35:54.172Z,29.10
2022-10-31T05:38:21.361Z,26.48
2022-10-31T05:40:48.583Z,26.77
2022-10-31T05:43:15.601Z,28.27
2022-10-31T05:45:42.616Z,28.58
2022-10-31T05:48:09.905Z,29.05
2022-10-31T05:50:38.670Z,27.33
2022-10-31T05:53:06.664Z,28.05
2022-10-31T05:55:34.345Z,26.52
2022-10-31T05:58:01.949Z,29.20
2022-10-31T06:00:30.141Z,28.85
2022-10-31T06:03:05.081Z,31.63
2022-10-31T06:05:32.651Z,33.05
2022-10-31T06:08:00.637Z,34.63
2022-10-31T06:10:28.437Z,29.00
2022-10-31T06:12:55.602Z,26.33
2022-10-31T06:15:24.594Z,26.80
2022-10-31T06:18:03.559Z,18.98
2022-10-31T06:20:31.662Z,29.02
2022-10-31T06:22:59.265Z,27.10
2022-10-31T06:25:27.124Z,29.10
2022-10-31T06:27:54.304Z,23.42
2022-10-31T06:30:21.348Z,21.92
2022-10-31T06:32:48.484Z,23.08
2022-10-31T06:35:15.606Z,27.92
2022-10-31T06:37:44.454Z,21.92
2022-10-31T06:40:14.027Z,19.10
2022-10-31T06:42:41.039Z,18.15
2022-10-31T06:45:08.477Z,21.02
2022-10-31T06:47:45.676Z,18.33
2022-10-31T06:50:23.794Z,22.67
2022-10-31T06:52:54.774Z,17.23
2022-10-31T06:55:23.794Z,22.58
2022-10-31T06:57:57.665Z,19.33
2022-10-31T07:00:30.920Z,24.20
2022-10-31T07:03:00.596Z,16.75
2022-10-31T07:05:28.666Z,21.08
2022-10-31T07:07:57.695Z,28.00
2022-10-31T07:10:26.883Z,26.40
2022-10-31T07:13:02.703Z,21.90
2022-10-31T07:15:33.782Z,23.13
2022-10-31T07:18:05.370Z,27.90
2022-10-31T07:23:00.265Z,27.40
2022-10-31T07:25:27.996Z,33.03
2022-10-31T07:27:55.100Z,32.90
2022-10-31T07:30:22.268Z,31.77
2022-10-31T07:32:50.740Z,39.45
2022-10-31T07:35:20.379Z,32.67
2022-10-31T07:37:48.106Z,31.23
2022-10-31T07:40:15.516Z,29.98
2022-10-31T07:42:47.856Z,27.75
2022-10-31T07:45:18.239Z,27.33
2022-10-31T07:47:49.905Z,33.63
2022-10-31T07:50:20.007Z,26.50
2022-10-31T07:52:47.029Z,29.25
2022-10-31T07:55:15.414Z,29.75
2022-10-31T07:57:42.638Z,24.80
2022-10-31T08:00:11.244Z,24.15
2022-10-31T08:02:39.760Z,25.55
2022-10-31T08:05:07.414Z,20.27
2022-10-31T08:07:38.966Z,28.42
2022-10-31T08:10:07.203Z,19.40
2022-10-31T08:12:34.326Z,23.10
2022-10-31T08:15:01.682Z,23.55
2022-10-31T08:17:28.793Z,19.00
2022-10-31T08:19:55.795Z,21.13
2022-10-31T08:22:23.022Z,22.02
2022-10-31T08:24:50.047Z,23.40
2022-10-31T08:27:17.077Z,27.77
2022-10-31T08:29:44.212Z,20.20
2022-10-31T08:32:11.285Z,22.65
2022-10-31T08:34:38.566Z,17.73
2022-10-31T08:37:05.624Z,22.50
2022-10-31T08:39:32.715Z,20.30
2022-10-31T08:41:59.933Z,16.77
2022-10-31T08:44:27.008Z,19.95
2022-10-31T08:46:54.932Z,16.00
2022-10-31T08:49:22.037Z,18.88
2022-10-31T08:51:49.744Z,19.70
2022-10-31T08:54:16.873Z,17.88
2022-10-31T08:56:43.929Z,20.08
2022-10-31T08:59:11.122Z,18.95
2022-10-31T09:01:39.812Z,18.40
2022-10-31T09:04:07.082Z,15.77
2022-10-31T09:06:34.625Z,18.48
2022-10-31T09:09:01.737Z,19.30
2022-10-31T09:11:31.044Z,19.27
2022-10-31T09:13:58.397Z,21.85
2022-10-31T09:16:25.941Z,18.52
2022-10-31T09:18:53.259Z,14.80
2022-10-31T09:21:20.499Z,19.85
2022-10-31T09:23:48.187Z,22.08
2022-10-31T09:26:15.433Z,18.95
2022-10-31T09:28:42.650Z,15.90
2022-10-31T09:31:10.151Z,20.15
2022-10-31T09:33:38.391Z,14.00
2022-10-31T09:36:05.684Z,16.00
2022-10-31T09:38:32.934Z,15.52
2022-10-31T09:41:25.192Z,20.15
2022-10-31T09:44:00.637Z,15.68
2022-10-31T09:46:47.715Z,13.63
2022-10-31T09:49:15.103Z,15.10
2022-10-31T09:51:51.995Z,16.08
2022-10-31T09:54:44.651Z,14.30
2022-10-31T09:59:46.790Z,14.35
2022-10-31T10:02:13.868Z,17.05
2022-10-31T10:04:55.079Z,11.88
2022-10-31T10:07:37.683Z,14.18
2022-10-31T10:10:40.854Z,10.63
2022-10-31T10:13:17.824Z,12.23
2022-10-31T10:15:54.009Z,9.85
2022-10-31T10:18:41.947Z,11.85
2022-10-31T10:21:52.263Z,12.38
2022-10-31T10:24:42.502Z,12.15
2022-10-31T10:27:37.438Z,13.98
2022-10-31T10:30:14.328Z,11.10
2022-10-31T10:32:51.063Z,16.02
2022-10-31T10:35:29.121Z,15.63
2022-10-31T10:38:19.665Z,10.85
2022-10-31T10:40:47.638Z,11.50
2022-10-31T10:43:37.821Z,11.68
2022-10-31T10:47:01.282Z,15.45
2022-10-31T10:49:44.348Z,8.13
2022-10-31T10:52:43.141Z,11.48
2022-10-31T10:58:02.953Z,10.13
2022-10-31T11:00:50.272Z,11.43
2022-10-31T11:03:18.944Z,10.60
2022-10-31T11:05:59.660Z,10.05
2022-10-31T11:08:35.177Z,7.90
2022-10-31T11:11:20.965Z,10.60
2022-10-31T11:13:51.544Z,12.25
2022-10-31T11:16:41.663Z,10.73
2022-10-31T11:19:22.799Z,8.70
2022-10-31T11:21:53.655Z,11.15
2022-10-31T11:24:28.637Z,14.00
2022-10-31T11:27:21.131Z,10.63
2022-10-31T11:29:49.822Z,8.40
2022-10-31T11:32:27.742Z,10.30
2022-10-31T11:34:57.822Z,14.73
2022-10-31T11:37:36.433Z,13.15
2022-10-31T11:40:07.283Z,16.17
2022-10-31T11:42:43.454Z,15.35
2022-10-31T11:45:28.619Z,9.35
2022-10-31T11:47:59.990Z,7.97
2022-10-31T11:50:40.448Z,10.85
2022-10-31T11:53:20.732Z,9.90
2022-10-31T11:55:48.849Z,14.82
2022-10-31T11:58:27.529Z,9.82
2022-10-31T12:00:56.958Z,11.20
2022-10-31T12:03:23.953Z,9.30
2022-10-31T12:06:04.015Z,8.27
2022-10-31T12:08:37.203Z,10.82
2022-10-31T12:11:12.820Z,5.22
2022-10-31T12:14:05.050Z,6.70
2022-10-31T12:16:50.465Z,8.70
2022-10-31T12:19:34.061Z,8.65
2022-10-31T12:22:21.479Z,9.25
2022-10-31T12:25:18.850Z,5.10
2022-10-31T12:28:04.538Z,7.25
2022-10-31T12:31:10.117Z,7.03
2022-10-31T12:33:46.506Z,10.32
2022-10-31T12:36:29.453Z,11.70
2022-10-31T12:39:19.883Z,8.50
2022-10-31T12:42:29.816Z,11.00
2022-10-31T12:45:28.995Z,5.05
2022-10-31T12:48:10.494Z,6.95
2022-10-31T12:51:00.705Z,10.32
2022-10-31T12:53:54.072Z,9.05
2022-10-31T12:56:45.310Z,6.82
2022-10-31T12:59:25.489Z,5.65
2022-10-31T13:02:32.458Z,10.35
2022-10-31T13:05:01.810Z,3.97
2022-10-31T13:07:52.035Z,7.43
2022-10-31T13:10:41.170Z,10.25
2022-10-31T13:13:14.727Z,6.25
2022-10-31T13:16:04.125Z,4.28
2022-10-31T13:18:44.514Z,8.40
2022-10-31T13:21:26.321Z,5.63
2022-10-31T13:23:53.733Z,8.93
2022-10-31T13:26:47.163Z,4.57
2022-10-31T13:29:19.121Z,5.65
2022-10-31T13:31:46.454Z,11.48
2022-10-31T13:34:24.080Z,10.10
2022-10-31T13:37:04.496Z,10.35
2022-10-31T13:39:42.696Z,8.80
2022-10-31T13:42:16.743Z,5.43
2022-10-31T13:44:43.897Z,10.65
2022-10-31T13:47:30.494Z,5.85
2022-10-31T13:50:19.890Z,5.97
2022-10-31T13:52:47.591Z,10.43
2022-10-31T13:55:44.651Z,7.63
2022-10-31T13:58:32.698Z,8.40
2022-10-31T14:01:01.415Z,4.47
2022-10-31T14:03:49.738Z,7.88
2022-10-31T14:06:17.595Z,9.45
2022-10-31T14:08:52.466Z,12.98
2022-10-31T14:11:33.018Z,13.32
2022-10-31T14:14:03.555Z,9.38
2022-10-31T14:16:32.887Z,9.02
2022-10-31T14:19:00.031Z,7.03
2022-10-31T14:21:27.061Z,9.52
2022-10-31T14:23:55.268Z,11.90
2022-10-31T14:26:29.535Z,8.57
2022-10-31T14:29:20.090Z,7.65
2022-10-31T14:31:55.233Z,9.93
2022-10-31T14:34:29.088Z,9.38
2022-10-31T14:36:59.105Z,10.35
2022-10-31T14:39:49.291Z,8.20
2022-10-31T14:42:26.043Z,13.25
2022-10-31T14:45:18.732Z,7.55
2022-10-31T14:47:54.960Z,8.15
2022-10-31T14:50:27.731Z,9.85
2022-10-31T14:52:58.909Z,10.35
2022-10-31T14:58:02.271Z,12.73
2022-10-31T15:00:32.313Z,9.60
2022-10-31T15:03:24.359Z,11.73
2022-10-31T15:05:57.038Z,5.72
2022-10-31T15:08:36.220Z,10.15
2022-10-31T15:11:19.748Z,12.55
2022-10-31T15:13:54.185Z,6.82
2022-10-31T15:16:27.935Z,7.80
2022-10-31T15:19:05.387Z,8.50
2022-10-31T15:21:34.278Z,10.32
2022-10-31T15:24:03.761Z,12.68
2022-10-31T15:26:41.754Z,11.27
2022-10-31T15:29:17.371Z,7.25
2022-10-31T15:31:55.386Z,8.32
2022-10-31T15:34:38.997Z,9.45
2022-10-31T15:37:10.813Z,8.68
2022-10-31T15:39:40.862Z,10.10
2022-10-31T15:42:29.988Z,12.27
2022-10-31T15:45:01.787Z,14.88
2022-10-31T15:47:31.376Z,8.77
2022-10-31T15:50:00.439Z,11.95
2022-10-31T15:52:30.588Z,8.80
2022-10-31T15:55:04.800Z,15.43
2022-10-31T15:57:32.470Z,11.45
2022-10-31T16:00:00.201Z,15.02
2022-10-31T16:02:29.036Z,18.35
2022-10-31T16:05:03.461Z,12.02
2022-10-31T16:07:31.531Z,14.50
2022-10-31T16:10:04.768Z,18.05
2022-10-31T16:12:47.004Z,11.82
2022-10-31T16:15:18.856Z,16.00
2022-10-31T16:17:49.028Z,16.48
2022-10-31T16:20:24.281Z,15.57
2022-10-31T16:22:53.216Z,15.82
2022-10-31T16:25:39.502Z,17.00
2022-10-31T16:28:42.361Z,11.73
2022-10-31T16:31:15.827Z,14.68
2022-10-31T16:33:43.498Z,14.73
2022-10-31T16:36:46.283Z,14.57
2022-10-31T16:39:15.200Z,9.52
2022-10-31T16:41:43.887Z,9.13
2022-10-31T16:44:19.522Z,14.05
2022-10-31T16:46:46.845Z,10.55
2022-10-31T16:49:14.212Z,13.73
2022-10-31T16:51:41.400Z,18.50
2022-10-31T16:54:10.984Z,15.15
2022-10-31T16:56:38.985Z,11.68
2022-10-31T16:59:15.668Z,11.70
2022-10-31T17:01:48.318Z,10.52
2022-10-31T17:04:16.091Z,16.63
2022-10-31T17:06:43.429Z,10.50
2022-10-31T17:09:10.964Z,13.15
2022-10-31T17:11:48.213Z,12.27
2022-10-31T17:14:17.523Z,12.68
2022-10-31T17:16:44.764Z,17.75
2022-10-31T17:19:12.971Z,10.73
2022-10-31T17:21:40.749Z,11.93
2022-10-31T17:24:11.636Z,13.07
2022-10-31T17:26:38.685Z,10.50
2022-10-31T17:29:05.758Z,12.55
2022-10-31T17:31:36.551Z,19.90
2022-10-31T17:34:05.420Z,12.80
2022-10-31T17:36:36.165Z,12.80
2022-10-31T17:39:05.666Z,13.90
2022-10-31T17:41:32.682Z,13.25
2022-10-31T17:44:01.087Z,15.52
2022-10-31T17:46:29.018Z,13.52
2022-10-31T17:48:56.284Z,14.80
2022-10-31T17:51:23.399Z,13.60
2022-10-31T17:53:50.522Z,11.90
2022-10-31T17:56:17.634Z,15.10
2022-10-31T17:58:44.828Z,17.13
2022-10-31T18:01:14.720Z,9.95
2022-10-31T18:03:42.017Z,14.45
2022-10-31T18:06:10.849Z,12.27
2022-10-31T18:08:39.647Z,14.07
2022-10-31T18:11:17.574Z,13.18
2022-10-31T18:13:44.669Z,14.25
2022-10-31T18:16:16.739Z,11.73
2022-10-31T18:18:44.002Z,12.10
2022-10-31T18:21:11.184Z,11.57
2022-10-31T18:23:38.325Z,13.40
2022-10-31T18:26:05.675Z,11.27
2022-10-31T18:28:33.806Z,13.18
2022-10-31T18:31:01.147Z,13.30
2022-10-31T18:33:28.697Z,8.98
2022-10-31T18:35:56.310Z,14.20
2022-10-31T18:38:23.837Z,9.07
2022-10-31T18:40:52.099Z,11.32
2022-10-31T18:43:19.165Z,17.13
2022-10-31T18:45:48.594Z,12.18
2022-10-31T18:48:17.895Z,15.52
2022-10-31T18:50:45.267Z,18.25
2022-10-31T18:53:12.542Z,18.05
2022-10-31T18:55:45.738Z,13.55
2022-10-31T18:58:17.680Z,13.52
2022-10-31T19:00:46.181Z,10.05
2022-10-31T19:03:13.928Z,13.70
2022-10-31T19:05:41.037Z,11.68
2022-10-31T19:08:08.176Z,11.43
2022-10-31T19:10:36.989Z,14.25
2022-10-31T19:13:04.752Z,16.83
2022-10-31T19:15:33.899Z,17.40
2022-10-31T19:18:01.236Z,17.20
2022-10-31T19:20:28.313Z,12.27
2022-10-31T19:22:55.553Z,14.32
2022-10-31T19:25:22.622Z,18.77
2022-10-31T19:27:49.704Z,19.83
2022-10-31T19:30:17.129Z,16.90
2022-10-31T19:32:44.222Z,15.02
2022-10-31T19:35:11.862Z,16.58
2022-10-31T19:37:40.264Z,17.30
2022-10-31T19:40:09.373Z,19.20
2022-10-31T19:42:36.629Z,18.77
2022-10-31T19:45:04.842Z,16.27
2022-10-31T19:47:32.203Z,18.55
2022-10-31T19:49:59.271Z,16.60
2022-10-31T19:52:26.443Z,16.88
2022-10-31T19:54:53.818Z,22.48
2022-10-31T19:57:35.789Z,16.42
2022-10-31T20:00:08.862Z,15.43
2022-10-31T20:02:35.949Z,14.95
2022-10-31T20:05:03.056Z,19.17
2022-10-31T20:07:30.288Z,11.18
2022-10-31T20:09:57.517Z,13.95
2022-10-31T20:12:24.800Z,17.95
2022-10-31T20:14:51.978Z,10.75
2022-10-31T20:17:19.013Z,12.10
2022-10-31T20:19:46.301Z,16.83
2022-10-31T20:22:13.646Z,16.67
2022-10-31T20:24:40.911Z,16.23
2022-10-31T20:27:08.078Z,17.05
2022-10-31T20:29:35.452Z,11.98
2022-10-31T20:32:02.740Z,17.17
2022-10-31T20:34:29.885Z,15.93
2022-10-31T20:36:56.998Z,17.25
2022-10-31T20:39:24.045Z,27.95
2022-10-31T20:41:51.620Z,16.65
2022-10-31T20:44:19.223Z,18.75
2022-10-31T20:46:46.383Z,18.58
2022-10-31T20:49:13.510Z,18.75
2022-10-31T20:51:40.881Z,14.93
2022-10-31T20:54:08.156Z,17.70
2022-10-31T20:56:35.315Z,19.90
2022-10-31T20:59:02.547Z,57.90
2022-10-31T21:01:33.355Z,49.60
2022-10-31T21:04:00.602Z,39.20
2022-10-31T21:06:28.927Z,36.50
2022-10-31T21:08:57.328Z,27.92
2022-10-31T21:11:26.497Z,29.30
2022-10-31T21:13:54.368Z,23.58
2022-10-31T21:16:32.530Z,26.05
2022-10-31T21:19:01.325Z,20.58
2022-10-31T21:21:37.627Z,15.15
2022-10-31T21:24:06.873Z,16.33
2022-10-31T21:26:38.053Z,22.65
2022-10-31T21:29:06.368Z,35.28
2022-10-31T21:31:35.317Z,26.92
2022-10-31T21:34:02.709Z,24.75
2022-10-31T21:36:30.052Z,16.75
2022-10-31T21:38:57.475Z,17.63
2022-10-31T21:41:26.063Z,16.23
2022-10-31T21:43:56.805Z,15.27
2022-10-31T21:46:26.526Z,14.32
2022-10-31T21:48:54.470Z,13.23
2022-10-31T21:51:30.331Z,20.80
2022-10-31T21:54:24.086Z,14.05
2022-10-31T21:56:55.552Z,13.40
2022-10-31T22:01:57.156Z,12.60
2022-10-31T22:04:34.097Z,13.70
2022-10-31T22:07:01.272Z,15.07
2022-10-31T22:09:31.869Z,10.10
2022-10-31T22:12:06.870Z,18.17
2022-10-31T22:14:37.991Z,14.27
2022-10-31T22:17:15.675Z,12.95
2022-10-31T22:19:42.934Z,13.70
2022-10-31T22:22:19.422Z,9.90
2022-10-31T22:24:49.860Z,9.32
2022-10-31T22:27:17.017Z,8.90
2022-10-31T22:29:44.331Z,11.75
2022-10-31T22:32:11.442Z,10.23
2022-10-31T22:34:42.338Z,8.48
2022-10-31T22:37:17.253Z,8.35
2022-10-31T22:39:51.257Z,7.55
2022-10-31T22:42:18.463Z,9.90
2022-10-31T22:44:48.565Z,11.65
2022-10-31T22:47:15.777Z,14.23
2022-10-31T22:49:48.438Z,13.82
2022-10-31T22:52:16.772Z,19.95
2022-10-31T22:54:47.559Z,15.25
2022-10-31T22:57:14.656Z,22.10
2022-10-31T22:59:42.948Z,17.52
2022-10-31T23:02:15.811Z,18.10
2022-10-31T23:04:43.249Z,14.13
2022-10-31T23:07:14.816Z,14.88
2022-10-31T23:09:44.029Z,14.80
2022-10-31T23:12:29.719Z,14.63
2022-10-31T23:14:56.907Z,13.85
2022-10-31T23:17:27.031Z,13.60
2022-10-31T23:19:54.116Z,14.10
2022-10-31T23:22:25.735Z,16.20
2022-10-31T23:24:57.725Z,15.98
2022-10-31T23:27:29.894Z,22.13
2022-10-31T23:30:02.385Z,16.98
2022-10-31T23:32:37.288Z,19.77
2022-10-31T23:35:09.033Z,14.85
2022-10-31T23:37:39.773Z,19.77
2022-10-31T23:40:08.892Z,15.98
2022-10-31T23:42:39.606Z,17.08
2022-10-31T23:45:07.397Z,18.63
2022-10-31T23:47:43.207Z,20.27
2022-10-31T23:50:14.588Z,17.15
2022-10-31T23:52:44.479Z,17.88
2022-10-31T23:55:15.241Z,16.52
2022-10-31T23:57:42.803Z,15.60
